Time;durP1;ratioP1;P1;durP2;ratioP2;P2;SDS_P1;SDS_P2;PMS_P1;PMS_P2;Temp;Humidity;BMP_temperature;BMP_pressure;BME280_temperature;BME280_humidity;BME280_pressure;Samples;Min_cycle;Max_cycle;Signal;HPM_P1;HPM_P2
2022/12/09 00:01:32;;;;;;;14.98;11.43;;;4.60;77.30;;;;;;5063201;28;20036;-75
2022/12/09 00:03:58;;;;;;;15.20;10.20;;;4.70;77.30;;;;;;5073162;28;20037;-77
2022/12/09 00:06:26;;;;;;;14.85;10.57;;;4.70;77.30;;;;;;5065961;28;20042;-77
2022/12/09 00:08:53;;;;;;;17.90;12.18;;;4.70;77.30;;;;;;5062134;28;20043;-77
2022/12/09 00:11:20;;;;;;;16.27;12.32;;;4.70;77.70;;;;;;5039541;28;20051;-75
2022/12/09 00:13:51;;;;;;;18.45;13.32;;;4.70;77.20;;;;;;5052636;28;20122;-76
2022/12/09 00:16:17;;;;;;;15.07;11.32;;;4.70;77.00;;;;;;5066840;28;20379;-75
2022/12/09 00:18:43;;;;;;;15.90;11.73;;;4.70;76.80;;;;;;5070341;28;20085;-75
2022/12/09 00:21:26;;;;;;;15.43;10.35;;;4.70;76.80;;;;;;5074360;28;20043;-75
2022/12/09 00:23:53;;;;;;;15.38;11.48;;;4.70;76.80;;;;;;5056348;28;20132;-75
2022/12/09 00:26:21;;;;;;;18.33;12.55;;;4.70;76.90;;;;;;5061545;28;20036;-77
2022/12/09 00:28:47;;;;;;;16.50;11.82;;;4.80;77.00;;;;;;5074827;28;20475;-75
2022/12/09 00:31:17;;;;;;;17.45;11.45;;;4.70;76.90;;;;;;5058674;28;20086;-75
2022/12/09 00:33:43;;;;;;;16.73;11.77;;;4.70;76.90;;;;;;5066758;28;20115;-75
2022/12/09 00:36:19;;;;;;;14.70;10.48;;;4.70;76.80;;;;;;5064730;28;20124;-75
2022/12/09 00:38:46;;;;;;;15.30;10.68;;;4.70;76.80;;;;;;5067130;28;20491;-75
2022/12/09 00:41:13;;;;;;;15.18;10.45;;;4.70;76.80;;;;;;5058394;28;20032;-75
2022/12/09 00:43:39;;;;;;;14.85;10.73;;;4.70;76.80;;;;;;5072402;28;20044;-75
2022/12/09 00:46:05;;;;;;;15.43;11.45;;;4.70;76.90;;;;;;5038824;28;20044;-75
2022/12/09 00:48:33;;;;;;;16.15;10.43;;;4.60;76.70;;;;;;5071301;28;20090;-75
2022/12/09 00:50:59;;;;;;;14.82;11.02;;;4.70;76.70;;;;;;5040716;28;20078;-74
2022/12/09 00:53:25;;;;;;;15.85;11.20;;;4.70;76.70;;;;;;5055710;28;20036;-75
2022/12/09 00:55:51;;;;;;;15.75;10.48;;;4.70;76.70;;;;;;5055658;28;20036;-75
2022/12/09 00:58:17;;;;;;;14.40;10.98;;;4.70;76.70;;;;;;5038776;28;20045;-75
2022/12/09 01:00:46;;;;;;;14.07;10.80;;;4.60;76.70;;;;;;5070198;28;20077;-75
2022/12/09 01:03:16;;;;;;;14.48;11.10;;;4.60;76.70;;;;;;5060887;28;20097;-76
2022/12/09 01:05:43;;;;;;;15.38;10.88;;;4.60;76.70;;;;;;5064502;28;20588;-75
2022/12/09 01:08:10;;;;;;;18.02;12.82;;;4.60;76.70;;;;;;5074335;28;20047;-75
2022/12/09 01:10:38;;;;;;;15.27;11.15;;;4.60;76.60;;;;;;5073201;28;20061;-75
2022/12/09 01:13:04;;;;;;;15.07;10.80;;;4.60;76.40;;;;;;5068202;28;20376;-75
2022/12/09 01:15:30;;;;;;;13.70;10.30;;;4.60;76.30;;;;;;5073814;28;20043;-77
2022/12/09 01:17:56;;;;;;;15.55;11.30;;;4.60;76.30;;;;;;5062700;28;20032;-75
2022/12/09 01:20:21;;;;;;;14.40;10.05;;;4.60;76.40;;;;;;5038412;28;20045;-76
2022/12/09 01:22:47;;;;;;;12.85;9.88;;;4.60;76.50;;;;;;5054168;28;20510;-76
2022/12/09 01:25:13;;;;;;;16.20;11.30;;;4.70;76.60;;;;;;5061343;28;20054;-76
2022/12/09 01:27:39;;;;;;;14.85;10.63;;;4.60;76.60;;;;;;5073789;28;20101;-75
2022/12/09 01:30:07;;;;;;;16.35;11.05;;;4.60;76.60;;;;;;5066334;28;20031;-76
2022/12/09 01:32:33;;;;;;;17.58;11.93;;;4.60;76.60;;;;;;5091324;28;20119;-75
2022/12/09 01:34:58;;;;;;;15.95;11.20;;;4.60;76.60;;;;;;5062810;28;20120;-75
2022/12/09 01:37:25;;;;;;;15.23;10.40;;;4.60;76.60;;;;;;5091347;28;20036;-75
2022/12/09 01:39:50;;;;;;;16.08;10.70;;;4.70;76.70;;;;;;5056284;28;20555;-75
2022/12/09 01:42:22;;;;;;;14.10;10.73;;;4.50;76.60;;;;;;5062987;28;20127;-75
2022/12/09 01:45:18;;;;;;;15.15;10.77;;;4.60;76.70;;;;;;5073067;28;20036;-75
2022/12/09 01:47:46;;;;;;;16.33;10.30;;;4.50;76.60;;;;;;5048502;28;20048;-75
2022/12/09 01:50:12;;;;;;;14.65;10.25;;;4.50;76.70;;;;;;5054755;28;20036;-75
2022/12/09 01:52:38;;;;;;;13.88;9.75;;;4.50;76.80;;;;;;5054957;28;20166;-75
2022/12/09 01:55:05;;;;;;;14.60;10.13;;;4.50;76.80;;;;;;5066059;28;20046;-75
2022/12/09 01:57:31;;;;;;;13.93;10.40;;;4.50;76.80;;;;;;5068912;28;20036;-75
2022/12/09 01:59:57;;;;;;;12.20;9.13;;;4.50;76.80;;;;;;5068358;28;20101;-75
2022/12/09 02:02:27;;;;;;;14.57;10.68;;;4.50;76.70;;;;;;5041340;28;20036;-75
2022/12/09 02:04:54;;;;;;;13.95;9.73;;;4.50;76.80;;;;;;5063277;28;20033;-75
2022/12/09 02:07:20;;;;;;;17.27;11.77;;;4.50;76.80;;;;;;5074370;28;20036;-75
2022/12/09 02:09:46;;;;;;;15.18;10.57;;;4.50;76.80;;;;;;5073357;28;20479;-75
2022/12/09 02:12:30;;;;;;;15.52;11.02;;;4.50;76.90;;;;;;5037706;28;20047;-75
2022/12/09 02:15:02;;;;;;;14.48;9.82;;;4.60;77.30;;;;;;5063224;28;20044;-75
2022/12/09 02:17:41;;;;;;;15.25;10.23;;;4.60;76.90;;;;;;5067526;28;20495;-75
2022/12/09 02:20:25;;;;;;;13.50;9.40;;;4.50;76.90;;;;;;5062714;28;20040;-75
2022/12/09 02:23:16;;;;;;;14.90;9.98;;;4.50;77.30;;;;;;5054466;28;20060;-75
2022/12/09 02:26:20;;;;;;;14.52;9.88;;;4.50;76.90;;;;;;5073318;28;20036;-75
2022/12/09 02:29:04;;;;;;;14.00;9.77;;;4.50;77.40;;;;;;5047248;28;20051;-75
2022/12/09 02:31:45;;;;;;;15.13;10.32;;;4.50;77.00;;;;;;5054299;28;20056;-75
2022/12/09 02:34:17;;;;;;;14.18;10.00;;;4.50;77.10;;;;;;5071883;28;20531;-75
2022/12/09 02:37:09;;;;;;;15.20;11.35;;;4.50;77.10;;;;;;5077490;28;20527;-75
2022/12/09 02:39:44;;;;;;;17.52;11.70;;;4.50;77.10;;;;;;5077363;28;20123;-75
2022/12/09 02:42:15;;;;;;;16.73;10.60;;;4.50;77.00;;;;;;5065048;28;20048;-75
2022/12/09 02:44:44;;;;;;;17.17;11.10;;;4.50;76.90;;;;;;5076789;28;20156;-76
2022/12/09 02:47:14;;;;;;;16.63;11.98;;;4.50;76.70;;;;;;5058878;28;20086;-76
2022/12/09 02:49:41;;;;;;;15.25;10.13;;;4.50;76.40;;;;;;5058838;28;20036;-75
2022/12/09 02:52:09;;;;;;;15.75;10.82;;;4.50;76.30;;;;;;5074405;28;20059;-75
2022/12/09 02:54:37;;;;;;;15.00;10.82;;;4.50;76.40;;;;;;5076531;28;20169;-76
2022/12/09 02:57:12;;;;;;;13.13;9.70;;;4.40;76.40;;;;;;5077060;28;20131;-75
2022/12/09 02:59:38;;;;;;;14.73;10.93;;;4.40;76.50;;;;;;5051792;28;20040;-76
2022/12/09 03:02:10;;;;;;;14.90;10.30;;;4.50;76.70;;;;;;5076253;28;20499;-76
2022/12/09 03:04:39;;;;;;;15.27;10.32;;;4.40;76.70;;;;;;5071543;28;20515;-76
2022/12/09 03:07:13;;;;;;;14.80;10.48;;;4.40;76.80;;;;;;5070505;28;20165;-76
2022/12/09 03:09:43;;;;;;;12.77;9.20;;;4.40;76.90;;;;;;5076486;28;20472;-76
2022/12/09 03:12:13;;;;;;;12.68;9.10;;;4.40;76.90;;;;;;5076571;28;20044;-75
2022/12/09 03:14:48;;;;;;;12.85;9.48;;;4.40;76.90;;;;;;5076785;28;20047;-76
2022/12/09 03:17:20;;;;;;;;;;;4.40;77.00;;;;;;5075384;28;20059;-76
2022/12/09 03:19:53;;;;;;;14.68;10.00;;;4.40;76.80;;;;;;5062596;28;19924;-76
2022/12/09 03:22:24;;;;;;;12.82;9.80;;;4.40;77.00;;;;;;5058686;28;20139;-76
2022/12/09 03:25:17;;;;;;;14.07;10.55;;;4.40;77.00;;;;;;5060543;28;20123;-76
2022/12/09 03:27:53;;;;;;;14.80;10.18;;;4.40;76.90;;;;;;5050808;28;20044;-76
2022/12/09 03:30:18;;;;;;;13.80;9.68;;;4.30;77.20;;;;;;5057299;28;20119;-76
2022/12/09 03:32:45;;;;;;;13.50;9.90;;;4.30;76.80;;;;;;5069410;28;20498;-76
2022/12/09 03:35:37;;;;;;;12.20;9.27;;;4.30;76.50;;;;;;5075442;28;20040;-76
2022/12/09 03:38:06;;;;;;;13.23;9.73;;;4.30;76.40;;;;;;5067748;28;20340;-76
2022/12/09 03:40:34;;;;;;;13.77;9.82;;;4.30;76.40;;;;;;5075484;28;20063;-76
2022/12/09 03:43:24;;;;;;;14.23;9.82;;;4.20;76.30;;;;;;5041072;28;20047;-76
2022/12/09 03:45:53;;;;;;;16.30;10.68;;;4.20;76.40;;;;;;5073100;28;20428;-76
2022/12/09 03:48:20;;;;;;;14.38;9.77;;;4.20;76.30;;;;;;5040118;28;20042;-76
2022/12/09 03:50:53;;;;;;;14.38;10.23;;;4.10;76.00;;;;;;5068369;28;20510;-76
2022/12/09 03:53:30;;;;;;;13.02;9.18;;;4.10;76.00;;;;;;5075981;28;20031;-76
2022/12/09 03:56:21;;;;;;;12.52;9.27;;;4.10;76.00;;;;;;5075982;28;20483;-76
2022/12/09 03:58:50;;;;;;;12.63;9.40;;;4.10;76.00;;;;;;5052835;28;20112;-76
2022/12/09 04:01:16;;;;;;;15.00;9.60;;;4.00;76.00;;;;;;5074425;28;20040;-76
2022/12/09 04:03:50;;;;;;;14.63;9.68;;;4.00;76.00;;;;;;5076063;28;20051;-76
2022/12/09 04:06:16;;;;;;;14.60;9.77;;;4.00;76.00;;;;;;5058666;28;20392;-76
2022/12/09 04:08:41;;;;;;;13.15;9.27;;;4.00;76.00;;;;;;5060258;28;20285;-76
2022/12/09 04:11:07;;;;;;;12.88;9.00;;;3.90;76.00;;;;;;5075742;28;20036;-76
2022/12/09 04:13:33;;;;;;;13.50;9.68;;;3.90;76.00;;;;;;5074054;28;20050;-76
2022/12/09 04:15:58;;;;;;;13.75;10.02;;;3.90;75.90;;;;;;5060014;28;20098;-75
2022/12/09 04:18:24;;;;;;;14.15;9.57;;;3.90;76.00;;;;;;5064465;28;20044;-76
2022/12/09 04:20:50;;;;;;;13.18;9.40;;;3.80;75.90;;;;;;5075489;28;20097;-76
2022/12/09 04:23:16;;;;;;;14.02;9.60;;;3.80;75.80;;;;;;5059776;28;20053;-75
2022/12/09 04:25:41;;;;;;;15.32;9.48;;;3.70;75.80;;;;;;5062209;28;20422;-76
2022/12/09 04:28:07;;;;;;;13.85;9.02;;;3.80;75.90;;;;;;5072354;28;20039;-75
2022/12/09 04:30:33;;;;;;;13.32;9.50;;;3.70;75.80;;;;;;5058385;28;20062;-77
2022/12/09 04:32:59;;;;;;;14.18;9.23;;;3.70;75.80;;;;;;5059312;28;20040;-76
2022/12/09 04:35:25;;;;;;;14.77;9.30;;;3.70;75.80;;;;;;5058561;28;20051;-75
2022/12/09 04:37:51;;;;;;;13.95;10.05;;;3.60;75.70;;;;;;5057095;28;20040;-76
2022/12/09 04:40:18;;;;;;;11.98;8.98;;;3.60;75.60;;;;;;5049045;28;20040;-76
2022/12/09 04:42:44;;;;;;;13.55;9.45;;;3.50;75.40;;;;;;5055683;28;20040;-76
2022/12/09 04:45:10;;;;;;;15.32;9.68;;;3.50;75.50;;;;;;5051621;28;20036;-76
2022/12/09 04:47:36;;;;;;;13.95;9.73;;;3.50;75.60;;;;;;5056893;28;20117;-75
2022/12/09 04:50:02;;;;;;;12.77;9.18;;;3.40;75.60;;;;;;5055541;28;20105;-75
2022/12/09 04:52:27;;;;;;;13.73;9.27;;;3.40;75.60;;;;;;5039137;28;20489;-75
2022/12/09 04:54:53;;;;;;;12.60;8.93;;;3.40;75.70;;;;;;5039129;28;20162;-75
2022/12/09 04:57:19;;;;;;;12.25;8.73;;;3.40;75.90;;;;;;5073262;28;20093;-76
2022/12/09 04:59:44;;;;;;;13.85;9.35;;;3.30;75.90;;;;;;5074934;28;20035;-76
2022/12/09 05:02:10;;;;;;;13.15;9.10;;;3.30;76.00;;;;;;5063018;28;20492;-76
2022/12/09 05:04:36;;;;;;;14.02;9.13;;;3.30;76.00;;;;;;5066914;28;20074;-75
2022/12/09 05:07:01;;;;;;;12.98;8.65;;;3.20;76.00;;;;;;5074526;28;20052;-76
2022/12/09 05:09:27;;;;;;;13.52;8.88;;;3.20;76.00;;;;;;5074463;28;20042;-76
2022/12/09 05:11:55;;;;;;;12.60;8.65;;;3.20;76.00;;;;;;5060894;28;20102;-75
2022/12/09 05:14:20;;;;;;;12.70;8.60;;;3.20;76.10;;;;;;5071923;28;20048;-75
2022/12/09 05:16:46;;;;;;;13.30;9.10;;;3.20;76.10;;;;;;5058000;28;20058;-76
2022/12/09 05:19:12;;;;;;;14.77;9.65;;;3.20;76.10;;;;;;5068143;28;20044;-76
2022/12/09 05:21:37;;;;;;;13.90;9.30;;;3.10;76.00;;;;;;5055406;28;20087;-76
2022/12/09 05:24:03;;;;;;;15.57;10.73;;;3.10;75.90;;;;;;5055052;28;20133;-76
2022/12/09 05:26:29;;;;;;;14.02;8.85;;;3.10;75.80;;;;;;5038578;28;20032;-75
2022/12/09 05:28:55;;;;;;;11.68;8.35;;;3.00;75.40;;;;;;5059041;28;20051;-77
2022/12/09 05:31:22;;;;;;;11.82;8.32;;;3.00;75.30;;;;;;5061800;28;20044;-77
2022/12/09 05:33:49;;;;;;;10.93;7.50;;;3.00;75.30;;;;;;5071996;28;20036;-76
2022/12/09 05:36:18;;;;;;;13.88;9.60;;;2.90;75.30;;;;;;5065051;28;20032;-76
2022/12/09 05:38:44;;;;;;;13.33;9.10;;;2.90;75.50;;;;;;5074026;28;20044;-76
2022/12/09 05:41:10;;;;;;;13.60;8.77;;;2.80;75.60;;;;;;5045578;28;20149;-76
2022/12/09 05:43:36;;;;;;;12.77;9.07;;;2.90;75.80;;;;;;5054765;28;20029;-76
2022/12/09 05:46:03;;;;;;;13.77;8.80;;;2.80;75.90;;;;;;5062073;28;20046;-76
2022/12/09 05:48:28;;;;;;;12.53;8.93;;;2.80;76.00;;;;;;5060432;28;20111;-77
2022/12/09 05:51:06;;;;;;;11.73;8.10;;;2.80;76.10;;;;;;5070319;28;20206;-76
2022/12/09 05:53:32;;;;;;;12.73;8.50;;;2.80;76.10;;;;;;5060138;28;20384;-76
2022/12/09 05:55:58;;;;;;;14.20;10.30;;;2.70;76.10;;;;;;5054686;28;20047;-76
2022/12/09 05:58:24;;;;;;;12.10;7.80;;;2.70;76.10;;;;;;5058196;28;20036;-76
2022/12/09 06:00:50;;;;;;;12.13;8.03;;;2.70;75.90;;;;;;5051365;28;20411;-76
2022/12/09 06:03:16;;;;;;;13.83;8.60;;;2.70;76.00;;;;;;5056180;28;20588;-77
2022/12/09 06:05:42;;;;;;;14.13;8.77;;;2.70;76.10;;;;;;5060078;28;20029;-77
2022/12/09 06:08:08;;;;;;;12.97;8.93;;;2.70;76.20;;;;;;5045820;28;20082;-77
2022/12/09 06:10:37;;;;;;;13.33;9.17;;;2.60;76.20;;;;;;5049096;28;20068;-77
2022/12/09 06:13:02;;;;;;;12.57;8.50;;;2.60;76.30;;;;;;5073872;28;20043;-76
2022/12/09 06:15:28;;;;;;;17.00;9.37;;;2.00;75.90;;;;;;5061007;28;20040;-76
2022/12/09 06:17:54;;;;;;;14.03;8.70;;;2.60;76.40;;;;;;5031553;28;20040;-76
2022/12/09 06:20:19;;;;;;;14.33;9.20;;;2.60;76.40;;;;;;5042129;28;20080;-76
2022/12/09 06:22:45;;;;;;;14.27;9.20;;;2.50;76.40;;;;;;5077404;28;20048;-77
2022/12/09 06:25:11;;;;;;;13.60;8.87;;;2.50;76.40;;;;;;5078001;28;20051;-76
2022/12/09 06:27:36;;;;;;;13.73;9.17;;;2.60;76.50;;;;;;5060058;28;20043;-77
2022/12/09 06:30:02;;;;;;;13.07;8.93;;;2.50;76.50;;;;;;5068701;28;20059;-77
2022/12/09 06:32:29;;;;;;;12.87;8.80;;;2.50;76.50;;;;;;5077789;28;20391;-76
2022/12/09 06:34:55;;;;;;;13.33;8.70;;;2.50;76.50;;;;;;5043757;28;20033;-77
2022/12/09 06:37:23;;;;;;;16.13;10.20;;;2.50;76.50;;;;;;5059043;28;20044;-77
2022/12/09 06:39:49;;;;;;;13.93;9.20;;;2.40;76.50;;;;;;5075758;28;20040;-77
2022/12/09 06:42:14;;;;;;;13.40;8.57;;;2.40;76.40;;;;;;5044232;28;20043;-77
2022/12/09 06:44:40;;;;;;;13.73;8.67;;;2.60;76.60;;;;;;5063115;28;20031;-77
2022/12/09 06:47:06;;;;;;;13.73;9.30;;;2.40;76.40;;;;;;5057722;28;20041;-76
2022/12/09 06:49:32;;;;;;;14.47;9.67;;;2.40;76.40;;;;;;5041082;28;20124;-76
2022/12/09 06:51:58;;;;;;;14.60;8.87;;;2.40;76.50;;;;;;5058793;28;20115;-76
2022/12/09 06:54:24;;;;;;;13.10;8.70;;;2.30;76.40;;;;;;5053219;28;20047;-76
2022/12/09 06:56:49;;;;;;;13.33;8.93;;;2.30;76.40;;;;;;5044131;28;20092;-76
2022/12/09 06:59:15;;;;;;;14.60;9.57;;;2.30;76.40;;;;;;5060480;28;20172;-76
2022/12/09 07:01:41;;;;;;;15.60;9.77;;;2.30;76.40;;;;;;5071244;28;20377;-77
2022/12/09 07:04:10;;;;;;;15.53;10.33;;;2.20;76.20;;;;;;5064638;28;20072;-77
2022/12/09 07:06:38;;;;;;;14.30;10.07;;;2.20;76.20;;;;;;5058055;28;20043;-76
2022/12/09 07:09:05;;;;;;;13.77;9.17;;;2.20;76.10;;;;;;5057518;28;20047;-77
2022/12/09 07:11:32;;;;;;;14.70;9.60;;;2.20;76.00;;;;;;5060314;28;20072;-77
2022/12/09 07:13:58;;;;;;;14.90;9.70;;;2.10;76.00;;;;;;5076791;28;20035;-69
2022/12/09 07:16:23;;;;;;;14.43;9.93;;;2.10;76.10;;;;;;5076438;28;20043;-69
2022/12/09 07:18:49;;;;;;;15.13;10.07;;;2.10;76.10;;;;;;5071645;28;20045;-69
2022/12/09 07:21:17;;;;;;;16.30;10.07;;;2.10;76.10;;;;;;5063674;28;20047;-69
2022/12/09 07:23:44;;;;;;;13.83;9.30;;;2.10;76.10;;;;;;5065161;28;20052;-68
2022/12/09 07:26:10;;;;;;;17.20;10.20;;;2.10;76.10;;;;;;5062918;28;20088;-69
2022/12/09 07:28:38;;;;;;;16.10;9.37;;;2.00;76.10;;;;;;5075389;28;20036;-68
2022/12/09 07:31:05;;;;;;;15.47;10.50;;;2.00;76.10;;;;;;5063739;28;20033;-68
2022/12/09 07:33:31;;;;;;;15.63;10.00;;;2.00;76.20;;;;;;5056908;28;20549;-69
2022/12/09 07:35:58;;;;;;;16.17;10.90;;;2.00;76.20;;;;;;5057032;28;20116;-68
2022/12/09 07:38:25;;;;;;;18.87;13.37;;;2.10;76.30;;;;;;5056832;28;20044;-68
2022/12/09 07:40:51;;;;;;;16.73;10.53;;;1.90;76.20;;;;;;5074566;28;20076;-68
2022/12/09 07:43:18;;;;;;;18.57;11.23;;;1.90;76.20;;;;;;5093009;28;20035;-69
2022/12/09 07:45:43;;;;;;;18.93;12.00;;;1.90;76.30;;;;;;5067733;28;20036;-69
2022/12/09 07:48:10;;;;;;;26.90;15.53;;;1.90;76.40;;;;;;5043313;28;20034;-68
2022/12/09 07:50:36;;;;;;;20.60;13.30;;;1.90;76.40;;;;;;5076173;28;20036;-69
2022/12/09 07:53:01;;;;;;;24.83;14.33;;;1.90;76.50;;;;;;5059578;28;20093;-69
2022/12/09 07:55:27;;;;;;;25.13;15.10;;;1.90;76.70;;;;;;5076085;28;20138;-68
2022/12/09 07:57:53;;;;;;;27.97;15.97;;;1.90;76.80;;;;;;5075247;28;20046;-69
2022/12/09 08:00:19;;;;;;;22.67;14.27;;;1.90;77.00;;;;;;5059062;28;20036;-69
2022/12/09 08:02:45;;;;;;;48.73;20.53;;;1.90;77.20;;;;;;5092902;28;20036;-68
2022/12/09 08:05:10;;;;;;;24.80;15.43;;;1.90;77.30;;;;;;5074458;28;20097;-69
2022/12/09 08:07:36;;;;;;;25.03;15.03;;;1.90;77.50;;;;;;5051960;28;20101;-68
2022/12/09 08:10:03;;;;;;;31.67;16.90;;;1.90;77.70;;;;;;5075733;28;20143;-68
2022/12/09 08:12:28;;;;;;;32.00;16.90;;;1.90;77.90;;;;;;5075224;28;20533;-68
2022/12/09 08:14:54;;;;;;;35.40;19.17;;;2.00;78.10;;;;;;5075879;28;20072;-69
2022/12/09 08:17:20;;;;;;;30.93;18.90;;;1.90;78.20;;;;;;5058403;28;20051;-77
2022/12/09 08:19:47;;;;;;;29.03;16.97;;;2.00;78.40;;;;;;5031167;28;20056;-77
2022/12/09 08:22:13;;;;;;;28.80;16.57;;;2.00;78.50;;;;;;5063592;28;20233;-77
2022/12/09 08:24:38;;;;;;;28.73;16.53;;;2.00;78.60;;;;;;5064682;28;20127;-77
2022/12/09 08:27:04;;;;;;;29.73;17.17;;;2.00;78.70;;;;;;5055882;28;20044;-77
2022/12/09 08:29:30;;;;;;;30.03;17.77;;;2.10;78.90;;;;;;5055975;28;20036;-77
2022/12/09 08:31:55;;;;;;;34.03;18.37;;;2.10;79.10;;;;;;5051307;28;20036;-77
2022/12/09 08:34:21;;;;;;;27.03;16.63;;;2.10;79.10;;;;;;5043863;28;20377;-77
2022/12/09 08:36:47;;;;;;;27.33;16.90;;;2.20;79.20;;;;;;5062781;28;20456;-77
2022/12/09 08:39:13;;;;;;;29.83;17.10;;;2.20;79.80;;;;;;5074667;28;20048;-77
2022/12/09 08:41:39;;;;;;;29.30;17.97;;;2.20;79.40;;;;;;5066320;28;20037;-77
2022/12/09 08:44:07;;;;;;;29.03;17.20;;;2.30;79.50;;;;;;5039941;28;20036;-77
2022/12/09 08:46:35;;;;;;;29.63;17.00;;;2.40;79.70;;;;;;5058290;28;20055;-76
2022/12/09 08:49:01;;;;;;;28.80;16.87;;;2.30;79.60;;;;;;5055561;28;20033;-77
2022/12/09 08:51:28;;;;;;;48.43;17.93;;;2.30;79.60;;;;;;5042178;28;20373;-76
2022/12/09 08:53:58;;;;;;;31.25;17.77;;;2.40;79.70;;;;;;5070428;28;20045;-76
2022/12/09 08:56:24;;;;;;;28.40;17.77;;;2.40;79.70;;;;;;5061727;28;20098;-76
2022/12/09 08:58:50;;;;;;;32.23;18.37;;;2.40;79.60;;;;;;5074021;28;20132;-77
2022/12/09 09:01:25;;;;;;;30.67;17.77;;;2.50;79.70;;;;;;5045159;28;20072;-68
2022/12/09 09:03:51;;;;;;;27.50;16.57;;;2.50;79.80;;;;;;5070958;28;20546;-68
2022/12/09 09:06:18;;;;;;;30.98;17.58;;;2.50;79.70;;;;;;5059899;28;20153;-68
2022/12/09 09:08:45;;;;;;;30.53;17.43;;;2.50;79.70;;;;;;5062285;28;20032;-68
2022/12/09 09:11:13;;;;;;;30.35;18.52;;;2.60;79.70;;;;;;5037881;28;20098;-68
2022/12/09 09:13:40;;;;;;;28.25;17.45;;;2.60;79.70;;;;;;5062184;28;20086;-76
2022/12/09 09:16:11;;;;;;;27.45;17.50;;;2.60;79.70;;;;;;5074530;28;20053;-77
2022/12/09 09:18:38;;;;;;;27.70;17.00;;;2.70;79.80;;;;;;5090867;28;20093;-77
2022/12/09 09:21:06;;;;;;;30.98;19.10;;;2.70;79.70;;;;;;5094539;28;20071;-77
2022/12/09 09:23:31;;;;;;;38.58;18.98;;;2.70;79.70;;;;;;5057447;28;20071;-77
2022/12/09 09:25:57;;;;;;;30.27;18.70;;;2.70;79.70;;;;;;5049016;28;20036;-77
2022/12/09 09:28:23;;;;;;;29.63;18.45;;;2.90;79.70;;;;;;5054823;28;20472;-77
2022/12/09 09:30:49;;;;;;;29.63;19.20;;;2.80;79.60;;;;;;5054369;28;20041;-76
2022/12/09 09:33:16;;;;;;;30.13;18.42;;;2.90;79.60;;;;;;5054676;28;20069;-78
2022/12/09 09:35:42;;;;;;;25.85;16.90;;;2.80;79.40;;;;;;5071764;28;20077;-77
2022/12/09 09:38:08;;;;;;;30.23;17.83;;;2.80;79.40;;;;;;5065061;28;20415;-76
2022/12/09 09:40:33;;;;;;;27.15;17.10;;;2.90;79.30;;;;;;5037989;28;20052;-77
2022/12/09 09:43:00;;;;;;;26.33;17.35;;;2.90;79.10;;;;;;5047827;28;20060;-78
2022/12/09 09:45:26;;;;;;;26.50;17.40;;;2.90;79.10;;;;;;5056853;28;20042;-77
2022/12/09 09:47:52;;;;;;;30.58;20.10;;;2.90;79.10;;;;;;5056976;28;20036;-78
2022/12/09 09:50:24;;;;;;;28.40;18.75;;;2.90;79.00;;;;;;5074157;28;20032;-77
2022/12/09 09:52:52;;;;;;;26.33;17.45;;;2.90;78.90;;;;;;5065093;28;20040;-78
2022/12/09 09:55:28;;;;;;;29.35;18.45;;;2.90;78.90;;;;;;5054522;28;20040;-78
2022/12/09 09:57:59;;;;;;;27.52;17.00;;;3.00;79.00;;;;;;5063245;28;20044;-77
2022/12/09 10:00:35;;;;;;;27.10;16.95;;;3.00;79.10;;;;;;5069460;28;20071;-77
2022/12/09 10:03:12;;;;;;;27.20;17.65;;;3.00;79.10;;;;;;5054440;28;20098;-77
2022/12/09 10:05:45;;;;;;;29.42;18.35;;;3.10;79.00;;;;;;5059614;28;20028;-77
2022/12/09 10:08:39;;;;;;;29.27;19.20;;;3.10;78.90;;;;;;5091689;28;20089;-76
2022/12/09 10:11:19;;;;;;;28.08;18.10;;;3.10;78.80;;;;;;5057035;28;20105;-76
2022/12/09 10:13:55;;;;;;;29.98;18.95;;;3.10;78.90;;;;;;5054415;28;20037;-76
2022/12/09 10:16:36;;;;;;;29.67;17.15;;;3.10;78.70;;;;;;5054319;28;20119;-76
2022/12/09 10:19:06;;;;;;;28.35;18.17;;;3.10;78.50;;;;;;5045398;28;20105;-75
2022/12/09 10:21:36;;;;;;;27.80;17.25;;;3.10;78.30;;;;;;5069676;28;20040;-76
2022/12/09 10:24:15;;;;;;;26.70;17.67;;;3.10;78.20;;;;;;5054528;28;20068;-75
2022/12/09 10:26:41;;;;;;;30.17;17.70;;;3.10;78.30;;;;;;5067216;28;20490;-76
2022/12/09 10:29:20;;;;;;;27.90;18.40;;;3.10;78.40;;;;;;5073456;28;20036;-77
2022/12/09 10:31:46;;;;;;;29.35;19.33;;;3.10;78.50;;;;;;5054544;28;20430;-77
2022/12/09 10:34:12;;;;;;;28.98;18.77;;;3.10;78.60;;;;;;5062602;28;20058;-76
2022/12/09 10:36:43;;;;;;;26.45;17.48;;;3.20;78.50;;;;;;5056615;28;20566;-76
2022/12/09 10:39:19;;;;;;;27.38;17.35;;;3.20;78.40;;;;;;5057684;28;20040;-76
2022/12/09 10:44:34;;;;;;;24.98;17.08;;;3.30;78.50;;;;;;5072970;28;20056;-77
2022/12/09 10:47:05;;;;;;;28.05;18.08;;;3.30;78.30;;;;;;5059866;28;20033;-76
2022/12/09 10:49:33;;;;;;;26.17;17.90;;;3.30;78.20;;;;;;5054000;28;20041;-76
2022/12/09 10:51:59;;;;;;;29.10;18.77;;;3.30;78.20;;;;;;5053964;28;20044;-76
2022/12/09 10:54:39;;;;;;;24.70;16.30;;;3.40;78.30;;;;;;5054225;28;20067;-76
2022/12/09 10:57:07;;;;;;;25.77;17.20;;;3.40;78.40;;;;;;5058829;28;20508;-76
2022/12/09 10:59:33;;;;;;;27.08;17.65;;;3.40;78.40;;;;;;5075590;28;20048;-75
2022/12/09 11:02:18;;;;;;;27.85;18.35;;;3.50;78.40;;;;;;5057438;28;20040;-77
2022/12/09 11:04:45;;;;;;;30.55;18.77;;;3.50;78.40;;;;;;5051116;28;20082;-75
2022/12/09 11:07:11;;;;;;;27.67;18.77;;;3.60;78.40;;;;;;5077188;28;20414;-75
2022/12/09 11:10:02;;;;;;;29.17;19.30;;;3.60;78.10;;;;;;5076002;28;20044;-76
2022/12/09 11:12:31;;;;;;;29.58;18.30;;;3.60;77.90;;;;;;5075474;28;20361;-76
2022/12/09 11:15:01;;;;;;;26.67;18.20;;;3.70;77.80;;;;;;5070590;28;20040;-76
2022/12/09 11:17:29;;;;;;;23.48;16.60;;;3.70;77.70;;;;;;5071000;28;20452;-76
2022/12/09 11:20:15;;;;;;;27.80;18.75;;;3.70;77.70;;;;;;5070448;28;20044;-76
2022/12/09 11:22:43;;;;;;;31.50;19.63;;;3.70;77.80;;;;;;5087845;28;20052;-76
2022/12/09 11:25:14;;;;;;;27.15;17.88;;;3.90;77.70;;;;;;5069374;28;20127;-76
2022/12/09 11:28:01;;;;;;;26.02;17.50;;;3.80;77.30;;;;;;5071163;28;20048;-77
2022/12/09 11:30:36;;;;;;;29.02;18.33;;;3.80;76.90;;;;;;5070217;28;20043;-77
2022/12/09 11:33:15;;;;;;;29.10;18.67;;;3.70;76.60;;;;;;5068771;28;20590;-76
2022/12/09 11:35:43;;;;;;;28.63;18.50;;;3.70;76.50;;;;;;5070222;28;20097;-76
2022/12/09 11:38:50;;;;;;;30.70;18.60;;;3.60;76.40;;;;;;5070155;28;20977;-76
2022/12/09 11:44:23;;;;;;;32.13;19.33;;;3.60;76.40;;;;;;5086781;28;20475;-76
2022/12/09 11:47:18;;;;;;;30.00;17.80;;;3.60;76.40;;;;;;5068862;28;20036;-76
2022/12/09 11:49:53;;;;;;;28.60;18.10;;;3.50;76.30;;;;;;5070407;28;20036;-76
2022/12/09 11:52:18;;;;;;;;;;;3.50;76.50;;;;;;5053269;28;20067;-76
2022/12/09 11:55:09;;;;;;;26.98;17.27;;;3.50;76.60;;;;;;5070195;28;19950;-76
2022/12/09 11:57:55;;;;;;;29.25;19.15;;;3.50;77.00;;;;;;5070644;28;20043;-77
2022/12/09 12:00:27;;;;;;;28.05;17.88;;;3.60;77.40;;;;;;5070604;28;20032;-76
2022/12/09 12:03:18;;;;;;;28.88;18.00;;;3.60;77.60;;;;;;5069147;28;20479;-76
2022/12/09 12:05:50;;;;;;;29.00;18.60;;;3.60;77.80;;;;;;5069352;28;20055;-76
2022/12/09 12:08:42;;;;;;;31.23;18.77;;;3.60;77.90;;;;;;5068921;28;20050;-76
2022/12/09 12:11:16;;;;;;;26.77;17.33;;;3.70;78.10;;;;;;5068712;28;20055;-76
2022/12/09 12:13:51;;;;;;;27.20;17.73;;;4.10;78.30;;;;;;5069687;28;20036;-76
2022/12/09 12:16:39;;;;;;;28.92;18.38;;;4.10;78.30;;;;;;5065677;28;20044;-75
2022/12/09 12:19:33;;;;;;;32.67;20.67;;;3.80;78.10;;;;;;5043896;28;20383;-76
2022/12/09 12:22:27;;;;;;;30.13;18.90;;;3.90;78.10;;;;;;5060030;28;20056;-76
2022/12/09 12:25:15;;;;;;;27.38;17.48;;;4.00;78.10;;;;;;5065547;28;20071;-76
2022/12/09 12:28:04;;;;;;;28.92;19.48;;;4.00;78.10;;;;;;5043213;28;20491;-76
2022/12/09 12:31:01;;;;;;;26.90;17.83;;;4.00;78.00;;;;;;5043570;28;20033;-76
2022/12/09 12:33:48;;;;;;;26.30;16.77;;;4.10;78.10;;;;;;5061727;28;20059;-76
2022/12/09 12:36:49;;;;;;;27.83;18.15;;;4.10;78.00;;;;;;5060308;28;20040;-76
2022/12/09 12:39:24;;;;;;;27.00;17.48;;;4.20;78.00;;;;;;5053154;28;20052;-76
2022/12/09 12:42:15;;;;;;;24.63;16.58;;;4.20;78.00;;;;;;5059453;28;20055;-76
2022/12/09 12:48:08;;;;;;;29.42;19.45;;;4.30;77.90;;;;;;5083010;28;20701;-76
2022/12/09 12:51:03;;;;;;;27.55;18.60;;;4.30;77.80;;;;;;5060421;28;20032;-76
2022/12/09 12:53:35;;;;;;;25.90;17.75;;;4.40;77.60;;;;;;5059870;28;20032;-76
2022/12/09 12:56:29;;;;;;;25.42;16.33;;;4.40;77.60;;;;;;5059274;28;20468;-76
2022/12/09 12:59:19;;;;;;;27.55;17.38;;;4.40;77.40;;;;;;5066901;28;20036;-76
2022/12/09 13:02:13;;;;;;;25.83;16.77;;;4.50;77.50;;;;;;5084142;28;20043;-76
2022/12/09 13:04:47;;;;;;;23.50;15.98;;;4.50;77.30;;;;;;5071171;28;20043;-76
2022/12/09 13:07:40;;;;;;;26.73;17.90;;;4.50;77.30;;;;;;5068804;28;20036;-76